YXH weather

Medicine Hat Airport
Medicine Hat, Alberta, Canada

Public forecast

Using degrees Celsius for public forecast. Weather courtesy of forecast.io.

METAR (pilot weather report)

Retrieved 2019/08/19 21:00 UTC (30 minutes ago):

CYXH 192100Z 31007G16KT 240V350 30SM SCT270 25/09 A2988 RMK CI3 SLP117 DENSITY ALT 4100FT

TAF (pilot weather forecast)

Retrieved 2019/08/19 18:39 UTC (3 hours ago):

TAF CYXH 191738Z 1918/2006 27010G20KT P6SM FEW270 BECMG 1922/1924 03012KT FM200300 06012KT P6SM SCT100 RMK NXT FCST BY 200000Z